sensor_id;sensor_type;location;lat;lon;timestamp;P1;durP1;ratioP1;P2;durP2;ratioP2
78893;SDS011;68282;42.698;23.350;2024-01-11T00:13:41;9.68;;;6.68;;
78893;SDS011;68282;42.698;23.350;2024-01-11T00:16:07;17.48;;;7.55;;
78893;SDS011;68282;42.698;23.350;2024-01-11T00:18:34;15.32;;;6.22;;
78893;SDS011;68282;42.698;23.350;2024-01-11T00:20:59;24.02;;;7.40;;
78893;SDS011;68282;42.698;23.350;2024-01-11T00:23:25;18.15;;;9.57;;
78893;SDS011;68282;42.698;23.350;2024-01-11T00:25:51;16.85;;;8.65;;
78893;SDS011;68282;42.698;23.350;2024-01-11T00:28:17;20.35;;;10.18;;
78893;SDS011;68282;42.698;23.350;2024-01-11T00:30:42;19.13;;;8.50;;
78893;SDS011;68282;42.698;23.350;2024-01-11T00:33:09;10.93;;;7.32;;
78893;SDS011;68282;42.698;23.350;2024-01-11T00:35:34;13.65;;;8.30;;
78893;SDS011;68282;42.698;23.350;2024-01-11T00:38:00;11.02;;;7.47;;
78893;SDS011;68282;42.698;23.350;2024-01-11T00:40:25;13.75;;;8.20;;
78893;SDS011;68282;42.698;23.350;2024-01-11T00:42:51;16.98;;;8.82;;
78893;SDS011;68282;42.698;23.350;2024-01-11T00:45:16;28.55;;;11.88;;
78893;SDS011;68282;42.698;23.350;2024-01-11T00:47:43;30.77;;;15.02;;
78893;SDS011;68282;42.698;23.350;2024-01-11T00:50:11;43.65;;;17.52;;
78893;SDS011;68282;42.698;23.350;2024-01-11T00:52:38;29.40;;;16.40;;
78893;SDS011;68282;42.698;23.350;2024-01-11T00:55:03;37.42;;;20.25;;
78893;SDS011;68282;42.698;23.350;2024-01-11T00:57:29;32.78;;;16.40;;
78893;SDS011;68282;42.698;23.350;2024-01-11T00:59:55;36.25;;;18.30;;
78893;SDS011;68282;42.698;23.350;2024-01-11T01:02:20;37.50;;;17.13;;
78893;SDS011;68282;42.698;23.350;2024-01-11T01:04:46;33.17;;;18.77;;
78893;SDS011;68282;42.698;23.350;2024-01-11T01:07:13;24.52;;;13.63;;
78893;SDS011;68282;42.698;23.350;2024-01-11T01:09:38;23.83;;;13.23;;
78893;SDS011;68282;42.698;23.350;2024-01-11T01:12:06;25.40;;;14.85;;
78893;SDS011;68282;42.698;23.350;2024-01-11T01:14:32;23.75;;;13.00;;
78893;SDS011;68282;42.698;23.350;2024-01-11T01:16:57;26.20;;;14.95;;
78893;SDS011;68282;42.698;23.350;2024-01-11T01:19:24;20.23;;;10.05;;
78893;SDS011;68282;42.698;23.350;2024-01-11T01:21:55;19.00;;;11.23;;
78893;SDS011;68282;42.698;23.350;2024-01-11T01:50:11;14.65;;;7.10;;
78893;SDS011;68282;42.698;23.350;2024-01-11T01:52:37;11.23;;;5.18;;
78893;SDS011;68282;42.698;23.350;2024-01-11T01:55:07;11.32;;;5.53;;
78893;SDS011;68282;42.698;23.350;2024-01-11T01:57:36;12.55;;;6.20;;
78893;SDS011;68282;42.698;23.350;2024-01-11T02:00:04;8.25;;;5.55;;
78893;SDS011;68282;42.698;23.350;2024-01-11T02:02:30;9.63;;;5.95;;
78893;SDS011;68282;42.698;23.350;2024-01-11T02:04:59;6.13;;;3.72;;
78893;SDS011;68282;42.698;23.350;2024-01-11T02:07:26;5.70;;;3.50;;
78893;SDS011;68282;42.698;23.350;2024-01-11T02:09:52;17.60;;;6.10;;
78893;SDS011;68282;42.698;23.350;2024-01-11T02:12:19;8.77;;;5.82;;
78893;SDS011;68282;42.698;23.350;2024-01-11T02:14:45;7.90;;;3.50;;
78893;SDS011;68282;42.698;23.350;2024-01-11T02:17:11;9.63;;;3.47;;
78893;SDS011;68282;42.698;23.350;2024-01-11T02:19:36;10.30;;;4.95;;
78893;SDS011;68282;42.698;23.350;2024-01-11T02:22:04;8.75;;;3.90;;
78893;SDS011;68282;42.698;23.350;2024-01-11T02:24:33;7.82;;;4.93;;
78893;SDS011;68282;42.698;23.350;2024-01-11T02:27:01;8.82;;;5.18;;
78893;SDS011;68282;42.698;23.350;2024-01-11T02:29:28;5.93;;;5.18;;
78893;SDS011;68282;42.698;23.350;2024-01-11T02:31:58;7.70;;;4.25;;
78893;SDS011;68282;42.698;23.350;2024-01-11T02:34:28;7.38;;;4.35;;
78893;SDS011;68282;42.698;23.350;2024-01-11T02:36:54;10.07;;;4.90;;
78893;SDS011;68282;42.698;23.350;2024-01-11T02:39:20;7.80;;;4.53;;
78893;SDS011;68282;42.698;23.350;2024-01-11T02:41:50;11.75;;;4.68;;
78893;SDS011;68282;42.698;23.350;2024-01-11T02:44:17;6.93;;;5.53;;
78893;SDS011;68282;42.698;23.350;2024-01-11T02:46:42;11.50;;;4.25;;
78893;SDS011;68282;42.698;23.350;2024-01-11T02:49:09;6.85;;;4.85;;
78893;SDS011;68282;42.698;23.350;2024-01-11T02:51:36;5.55;;;4.15;;
78893;SDS011;68282;42.698;23.350;2024-01-11T02:54:02;8.43;;;5.22;;
78893;SDS011;68282;42.698;23.350;2024-01-11T02:56:27;6.50;;;4.72;;
78893;SDS011;68282;42.698;23.350;2024-01-11T02:58:53;8.43;;;4.95;;
78893;SDS011;68282;42.698;23.350;2024-01-11T03:01:18;6.25;;;4.78;;
78893;SDS011;68282;42.698;23.350;2024-01-11T03:03:44;11.85;;;5.53;;
78893;SDS011;68282;42.698;23.350;2024-01-11T03:06:09;9.57;;;5.57;;
78893;SDS011;68282;42.698;23.350;2024-01-11T03:08:35;11.30;;;6.07;;
78893;SDS011;68282;42.698;23.350;2024-01-11T03:11:00;13.15;;;6.93;;
78893;SDS011;68282;42.698;23.350;2024-01-11T03:13:26;16.10;;;7.53;;
78893;SDS011;68282;42.698;23.350;2024-01-11T03:15:52;13.30;;;6.40;;
78893;SDS011;68282;42.698;23.350;2024-01-11T03:18:18;13.48;;;7.18;;
78893;SDS011;68282;42.698;23.350;2024-01-11T03:20:43;12.45;;;7.35;;
78893;SDS011;68282;42.698;23.350;2024-01-11T03:23:09;15.07;;;7.03;;
78893;SDS011;68282;42.698;23.350;2024-01-11T03:25:34;12.68;;;8.00;;
78893;SDS011;68282;42.698;23.350;2024-01-11T03:28:00;10.10;;;6.43;;
78893;SDS011;68282;42.698;23.350;2024-01-11T03:30:27;7.07;;;5.90;;
78893;SDS011;68282;42.698;23.350;2024-01-11T03:32:53;10.90;;;5.55;;
78893;SDS011;68282;42.698;23.350;2024-01-11T03:35:18;9.27;;;6.85;;
78893;SDS011;68282;42.698;23.350;2024-01-11T03:37:44;17.25;;;7.68;;
78893;SDS011;68282;42.698;23.350;2024-01-11T03:40:10;15.48;;;8.85;;
78893;SDS011;68282;42.698;23.350;2024-01-11T03:42:36;8.50;;;6.10;;
78893;SDS011;68282;42.698;23.350;2024-01-11T03:45:02;9.65;;;7.50;;
78893;SDS011;68282;42.698;23.350;2024-01-11T03:47:29;13.32;;;7.00;;
78893;SDS011;68282;42.698;23.350;2024-01-11T03:49:56;12.85;;;8.55;;
78893;SDS011;68282;42.698;23.350;2024-01-11T03:52:22;12.48;;;7.55;;
78893;SDS011;68282;42.698;23.350;2024-01-11T03:54:47;13.90;;;8.18;;
78893;SDS011;68282;42.698;23.350;2024-01-11T03:57:13;16.63;;;8.43;;
78893;SDS011;68282;42.698;23.350;2024-01-11T03:59:41;13.10;;;6.22;;
78893;SDS011;68282;42.698;23.350;2024-01-11T04:02:07;14.27;;;8.20;;
78893;SDS011;68282;42.698;23.350;2024-01-11T04:04:33;15.43;;;8.10;;
78893;SDS011;68282;42.698;23.350;2024-01-11T04:06:58;19.00;;;7.55;;
78893;SDS011;68282;42.698;23.350;2024-01-11T04:09:24;9.85;;;6.60;;
78893;SDS011;68282;42.698;23.350;2024-01-11T04:11:50;12.13;;;7.55;;
78893;SDS011;68282;42.698;23.350;2024-01-11T04:14:15;17.20;;;7.40;;
78893;SDS011;68282;42.698;23.350;2024-01-11T04:16:41;11.82;;;5.57;;
78893;SDS011;68282;42.698;23.350;2024-01-11T04:19:08;15.40;;;7.78;;
78893;SDS011;68282;42.698;23.350;2024-01-11T04:21:36;9.73;;;6.85;;
78893;SDS011;68282;42.698;23.350;2024-01-11T04:24:05;16.40;;;6.70;;
78893;SDS011;68282;42.698;23.350;2024-01-11T04:26:32;14.82;;;8.85;;
78893;SDS011;68282;42.698;23.350;2024-01-11T04:28:59;14.57;;;9.13;;
78893;SDS011;68282;42.698;23.350;2024-01-11T04:31:26;13.23;;;8.23;;
78893;SDS011;68282;42.698;23.350;2024-01-11T04:33:52;15.77;;;7.35;;
78893;SDS011;68282;42.698;23.350;2024-01-11T04:36:18;17.38;;;9.23;;
78893;SDS011;68282;42.698;23.350;2024-01-11T04:38:45;14.65;;;7.68;;
78893;SDS011;68282;42.698;23.350;2024-01-11T04:41:11;16.60;;;9.27;;
78893;SDS011;68282;42.698;23.350;2024-01-11T04:43:39;18.98;;;8.85;;
78893;SDS011;68282;42.698;23.350;2024-01-11T04:46:39;33.72;;;14.18;;
78893;SDS011;68282;42.698;23.350;2024-01-11T04:48:57;30.02;;;17.45;;
78893;SDS011;68282;42.698;23.350;2024-01-11T04:51:23;28.60;;;16.42;;
78893;SDS011;68282;42.698;23.350;2024-01-11T04:53:48;22.70;;;11.35;;
78893;SDS011;68282;42.698;23.350;2024-01-11T04:56:14;17.20;;;12.48;;
78893;SDS011;68282;42.698;23.350;2024-01-11T04:58:41;17.55;;;8.80;;
78893;SDS011;68282;42.698;23.350;2024-01-11T05:01:14;13.68;;;10.60;;
78893;SDS011;68282;42.698;23.350;2024-01-11T05:03:43;27.20;;;12.98;;
78893;SDS011;68282;42.698;23.350;2024-01-11T05:06:17;15.57;;;10.48;;
78893;SDS011;68282;42.698;23.350;2024-01-11T05:09:03;21.88;;;11.85;;
78893;SDS011;68282;42.698;23.350;2024-01-11T05:11:29;21.23;;;10.23;;
78893;SDS011;68282;42.698;23.350;2024-01-11T05:13:55;20.05;;;11.73;;
78893;SDS011;68282;42.698;23.350;2024-01-11T05:18:47;21.23;;;10.68;;
78893;SDS011;68282;42.698;23.350;2024-01-11T05:21:13;20.27;;;10.70;;
78893;SDS011;68282;42.698;23.350;2024-01-11T05:23:40;18.67;;;10.35;;
78893;SDS011;68282;42.698;23.350;2024-01-11T05:26:06;14.57;;;8.13;;
78893;SDS011;68282;42.698;23.350;2024-01-11T05:28:33;13.15;;;9.93;;
78893;SDS011;68282;42.698;23.350;2024-01-11T05:30:59;16.30;;;10.68;;
78893;SDS011;68282;42.698;23.350;2024-01-11T05:33:25;13.18;;;9.77;;
78893;SDS011;68282;42.698;23.350;2024-01-11T05:35:50;20.23;;;10.35;;
78893;SDS011;68282;42.698;23.350;2024-01-11T05:38:18;13.65;;;8.48;;
78893;SDS011;68282;42.698;23.350;2024-01-11T05:40:48;17.40;;;8.40;;
78893;SDS011;68282;42.698;23.350;2024-01-11T05:43:13;18.67;;;9.95;;
78893;SDS011;68282;42.698;23.350;2024-01-11T05:45:40;15.52;;;9.20;;
78893;SDS011;68282;42.698;23.350;2024-01-11T05:48:05;20.92;;;9.20;;
78893;SDS011;68282;42.698;23.350;2024-01-11T05:50:31;18.90;;;9.48;;
78893;SDS011;68282;42.698;23.350;2024-01-11T05:52:57;14.30;;;9.68;;
78893;SDS011;68282;42.698;23.350;2024-01-11T05:55:23;14.93;;;8.65;;
78893;SDS011;68282;42.698;23.350;2024-01-11T05:57:49;22.70;;;10.02;;
78893;SDS011;68282;42.698;23.350;2024-01-11T06:00:14;10.20;;;7.57;;
78893;SDS011;68282;42.698;23.350;2024-01-11T06:02:40;11.77;;;8.82;;
78893;SDS011;68282;42.698;23.350;2024-01-11T06:05:10;19.80;;;11.35;;
78893;SDS011;68282;42.698;23.350;2024-01-11T06:07:37;25.58;;;12.38;;
78893;SDS011;68282;42.698;23.350;2024-01-11T06:10:03;23.55;;;10.25;;
78893;SDS011;68282;42.698;23.350;2024-01-11T06:12:31;14.80;;;10.27;;
78893;SDS011;68282;42.698;23.350;2024-01-11T06:14:57;15.88;;;8.80;;
78893;SDS011;68282;42.698;23.350;2024-01-11T06:17:23;16.08;;;9.13;;
78893;SDS011;68282;42.698;23.350;2024-01-11T06:19:48;15.23;;;7.57;;
78893;SDS011;68282;42.698;23.350;2024-01-11T06:22:14;14.63;;;8.52;;
78893;SDS011;68282;42.698;23.350;2024-01-11T06:24:40;25.23;;;10.40;;
78893;SDS011;68282;42.698;23.350;2024-01-11T06:27:06;16.80;;;8.95;;
78893;SDS011;68282;42.698;23.350;2024-01-11T06:29:31;15.82;;;9.50;;
78893;SDS011;68282;42.698;23.350;2024-01-11T06:31:57;13.20;;;9.55;;
78893;SDS011;68282;42.698;23.350;2024-01-11T06:34:22;20.13;;;10.82;;
78893;SDS011;68282;42.698;23.350;2024-01-11T06:36:48;19.23;;;9.57;;
78893;SDS011;68282;42.698;23.350;2024-01-11T06:39:13;12.40;;;8.50;;
78893;SDS011;68282;42.698;23.350;2024-01-11T06:41:39;15.65;;;10.13;;
78893;SDS011;68282;42.698;23.350;2024-01-11T06:44:05;16.60;;;11.35;;
78893;SDS011;68282;42.698;23.350;2024-01-11T06:46:30;17.30;;;10.15;;
78893;SDS011;68282;42.698;23.350;2024-01-11T06:48:56;14.93;;;9.90;;
78893;SDS011;68282;42.698;23.350;2024-01-11T06:51:22;16.35;;;10.15;;
78893;SDS011;68282;42.698;23.350;2024-01-11T06:53:48;14.95;;;9.40;;
78893;SDS011;68282;42.698;23.350;2024-01-11T06:56:15;20.58;;;9.88;;
78893;SDS011;68282;42.698;23.350;2024-01-11T06:58:41;18.98;;;10.45;;
78893;SDS011;68282;42.698;23.350;2024-01-11T07:01:06;21.65;;;10.82;;
78893;SDS011;68282;42.698;23.350;2024-01-11T07:03:32;19.17;;;9.75;;
78893;SDS011;68282;42.698;23.350;2024-01-11T07:05:58;15.50;;;10.73;;
78893;SDS011;68282;42.698;23.350;2024-01-11T07:08:23;15.82;;;9.82;;
78893;SDS011;68282;42.698;23.350;2024-01-11T07:10:49;17.05;;;12.30;;
78893;SDS011;68282;42.698;23.350;2024-01-11T07:13:15;18.65;;;11.38;;
78893;SDS011;68282;42.698;23.350;2024-01-11T07:15:42;18.02;;;10.48;;
78893;SDS011;68282;42.698;23.350;2024-01-11T07:18:08;18.33;;;10.82;;
78893;SDS011;68282;42.698;23.350;2024-01-11T07:20:35;21.33;;;11.85;;
78893;SDS011;68282;42.698;23.350;2024-01-11T07:23:01;28.25;;;13.27;;
78893;SDS011;68282;42.698;23.350;2024-01-11T07:25:27;20.67;;;9.50;;
78893;SDS011;68282;42.698;23.350;2024-01-11T07:27:52;10.32;;;7.43;;
78893;SDS011;68282;42.698;23.350;2024-01-11T07:30:18;11.95;;;8.68;;
78893;SDS011;68282;42.698;23.350;2024-01-11T07:32:44;19.70;;;10.93;;
78893;SDS011;68282;42.698;23.350;2024-01-11T07:35:10;15.80;;;8.32;;
78893;SDS011;68282;42.698;23.350;2024-01-11T07:37:39;23.90;;;12.00;;
78893;SDS011;68282;42.698;23.350;2024-01-11T07:40:08;13.88;;;8.88;;
78893;SDS011;68282;42.698;23.350;2024-01-11T07:42:39;11.93;;;8.57;;
78893;SDS011;68282;42.698;23.350;2024-01-11T07:45:06;21.65;;;11.43;;
78893;SDS011;68282;42.698;23.350;2024-01-11T07:47:32;22.65;;;12.18;;
78893;SDS011;68282;42.698;23.350;2024-01-11T07:49:58;25.15;;;13.73;;
78893;SDS011;68282;42.698;23.350;2024-01-11T07:52:24;25.20;;;14.60;;
78893;SDS011;68282;42.698;23.350;2024-01-11T07:54:49;24.83;;;14.60;;
78893;SDS011;68282;42.698;23.350;2024-01-11T07:57:15;29.85;;;14.77;;
78893;SDS011;68282;42.698;23.350;2024-01-11T07:59:41;24.70;;;13.60;;
78893;SDS011;68282;42.698;23.350;2024-01-11T08:02:07;14.43;;;8.77;;
78893;SDS011;68282;42.698;23.350;2024-01-11T08:04:33;17.27;;;10.27;;
78893;SDS011;68282;42.698;23.350;2024-01-11T08:06:59;18.38;;;12.65;;
78893;SDS011;68282;42.698;23.350;2024-01-11T08:09:25;20.48;;;12.15;;
78893;SDS011;68282;42.698;23.350;2024-01-11T08:11:51;17.50;;;11.93;;
78893;SDS011;68282;42.698;23.350;2024-01-11T08:14:19;16.27;;;9.63;;
78893;SDS011;68282;42.698;23.350;2024-01-11T08:16:45;20.92;;;12.65;;
78893;SDS011;68282;42.698;23.350;2024-01-11T08:19:11;17.05;;;12.77;;
78893;SDS011;68282;42.698;23.350;2024-01-11T08:21:40;22.30;;;11.65;;
78893;SDS011;68282;42.698;23.350;2024-01-11T08:24:06;17.80;;;11.00;;
78893;SDS011;68282;42.698;23.350;2024-01-11T08:26:32;24.88;;;13.25;;
78893;SDS011;68282;42.698;23.350;2024-01-11T08:28:58;26.75;;;14.52;;
78893;SDS011;68282;42.698;23.350;2024-01-11T08:31:25;26.08;;;13.70;;
78893;SDS011;68282;42.698;23.350;2024-01-11T08:33:50;26.58;;;13.63;;
78893;SDS011;68282;42.698;23.350;2024-01-11T08:36:16;21.58;;;12.13;;
78893;SDS011;68282;42.698;23.350;2024-01-11T08:38:42;24.08;;;14.38;;
78893;SDS011;68282;42.698;23.350;2024-01-11T08:41:07;21.77;;;12.52;;
78893;SDS011;68282;42.698;23.350;2024-01-11T08:43:33;28.02;;;15.93;;
78893;SDS011;68282;42.698;23.350;2024-01-11T08:45:59;25.33;;;11.85;;
78893;SDS011;68282;42.698;23.350;2024-01-11T08:48:25;25.05;;;15.48;;
78893;SDS011;68282;42.698;23.350;2024-01-11T08:50:51;20.38;;;13.25;;
78893;SDS011;68282;42.698;23.350;2024-01-11T08:53:18;25.05;;;14.40;;
78893;SDS011;68282;42.698;23.350;2024-01-11T08:55:45;21.13;;;13.88;;
78893;SDS011;68282;42.698;23.350;2024-01-11T08:58:10;24.55;;;12.48;;
78893;SDS011;68282;42.698;23.350;2024-01-11T09:00:36;24.20;;;14.88;;
78893;SDS011;68282;42.698;23.350;2024-01-11T09:03:02;21.38;;;13.02;;
78893;SDS011;68282;42.698;23.350;2024-01-11T09:05:29;19.95;;;12.55;;
78893;SDS011;68282;42.698;23.350;2024-01-11T09:07:56;19.02;;;11.68;;
78893;SDS011;68282;42.698;23.350;2024-01-11T09:10:23;22.70;;;13.88;;
78893;SDS011;68282;42.698;23.350;2024-01-11T09:12:48;22.85;;;11.32;;
78893;SDS011;68282;42.698;23.350;2024-01-11T09:15:14;20.33;;;11.20;;
78893;SDS011;68282;42.698;23.350;2024-01-11T09:17:39;19.85;;;11.55;;
78893;SDS011;68282;42.698;23.350;2024-01-11T09:20:05;17.30;;;10.38;;
78893;SDS011;68282;42.698;23.350;2024-01-11T09:22:31;13.45;;;9.30;;
78893;SDS011;68282;42.698;23.350;2024-01-11T09:24:56;19.45;;;11.45;;
78893;SDS011;68282;42.698;23.350;2024-01-11T09:27:22;17.77;;;10.75;;
78893;SDS011;68282;42.698;23.350;2024-01-11T09:29:47;23.67;;;13.82;;
78893;SDS011;68282;42.698;23.350;2024-01-11T09:32:13;16.02;;;11.85;;
78893;SDS011;68282;42.698;23.350;2024-01-11T09:34:39;22.10;;;12.23;;
78893;SDS011;68282;42.698;23.350;2024-01-11T09:37:04;20.95;;;12.73;;
78893;SDS011;68282;42.698;23.350;2024-01-11T09:39:30;23.40;;;10.52;;
78893;SDS011;68282;42.698;23.350;2024-01-11T09:42:03;15.43;;;10.93;;
78893;SDS011;68282;42.698;23.350;2024-01-11T09:44:32;64.18;;;38.38;;
78893;SDS011;68282;42.698;23.350;2024-01-11T09:46:58;85.00;;;52.38;;
78893;SDS011;68282;42.698;23.350;2024-01-11T09:49:29;25.63;;;13.75;;
78893;SDS011;68282;42.698;23.350;2024-01-11T09:51:58;24.65;;;12.43;;
78893;SDS011;68282;42.698;23.350;2024-01-11T09:54:26;26.20;;;13.45;;
78893;SDS011;68282;42.698;23.350;2024-01-11T09:56:52;20.42;;;12.48;;
78893;SDS011;68282;42.698;23.350;2024-01-11T09:59:20;24.88;;;13.10;;
78893;SDS011;68282;42.698;23.350;2024-01-11T10:01:49;26.27;;;14.80;;
78893;SDS011;68282;42.698;23.350;2024-01-11T10:04:15;22.13;;;12.23;;
78893;SDS011;68282;42.698;23.350;2024-01-11T10:06:43;19.77;;;12.50;;
78893;SDS011;68282;42.698;23.350;2024-01-11T10:09:09;21.60;;;14.05;;
78893;SDS011;68282;42.698;23.350;2024-01-11T10:11:35;22.83;;;12.50;;
78893;SDS011;68282;42.698;23.350;2024-01-11T10:14:01;25.17;;;11.65;;
78893;SDS011;68282;42.698;23.350;2024-01-11T10:16:27;17.23;;;10.95;;
78893;SDS011;68282;42.698;23.350;2024-01-11T10:18:54;19.52;;;10.43;;
78893;SDS011;68282;42.698;23.350;2024-01-11T10:21:21;27.05;;;12.55;;
78893;SDS011;68282;42.698;23.350;2024-01-11T10:23:47;18.73;;;11.20;;
78893;SDS011;68282;42.698;23.350;2024-01-11T10:26:18;17.98;;;11.05;;
78893;SDS011;68282;42.698;23.350;2024-01-11T10:28:44;20.90;;;12.30;;
78893;SDS011;68282;42.698;23.350;2024-01-11T10:31:10;19.58;;;12.75;;
78893;SDS011;68282;42.698;23.350;2024-01-11T10:33:40;20.88;;;13.15;;
78893;SDS011;68282;42.698;23.350;2024-01-11T10:36:06;23.30;;;14.45;;
78893;SDS011;68282;42.698;23.350;2024-01-11T10:38:38;26.63;;;13.98;;
78893;SDS011;68282;42.698;23.350;2024-01-11T10:41:05;28.80;;;14.35;;
78893;SDS011;68282;42.698;23.350;2024-01-11T10:43:36;26.02;;;13.90;;
78893;SDS011;68282;42.698;23.350;2024-01-11T10:46:05;29.13;;;16.77;;
78893;SDS011;68282;42.698;23.350;2024-01-11T10:48:34;24.02;;;15.75;;
78893;SDS011;68282;42.698;23.350;2024-01-11T10:51:05;26.60;;;15.32;;
78893;SDS011;68282;42.698;23.350;2024-01-11T10:53:47;29.05;;;13.68;;
78893;SDS011;68282;42.698;23.350;2024-01-11T10:56:31;32.13;;;14.75;;
78893;SDS011;68282;42.698;23.350;2024-01-11T10:58:58;25.15;;;12.52;;
78893;SDS011;68282;42.698;23.350;2024-01-11T11:01:27;24.85;;;13.52;;
78893;SDS011;68282;42.698;23.350;2024-01-11T11:03:54;24.35;;;13.40;;
78893;SDS011;68282;42.698;23.350;2024-01-11T11:06:22;21.17;;;13.80;;
78893;SDS011;68282;42.698;23.350;2024-01-11T11:08:49;21.48;;;11.60;;
78893;SDS011;68282;42.698;23.350;2024-01-11T11:11:16;13.25;;;8.55;;
78893;SDS011;68282;42.698;23.350;2024-01-11T11:13:43;19.65;;;12.48;;
78893;SDS011;68282;42.698;23.350;2024-01-11T11:16:14;19.33;;;12.95;;
78893;SDS011;68282;42.698;23.350;2024-01-11T11:18:40;25.98;;;12.95;;
78893;SDS011;68282;42.698;23.350;2024-01-11T11:21:10;27.98;;;15.93;;
78893;SDS011;68282;42.698;23.350;2024-01-11T11:23:38;33.10;;;16.65;;
78893;SDS011;68282;42.698;23.350;2024-01-11T11:26:05;31.42;;;16.10;;
78893;SDS011;68282;42.698;23.350;2024-01-11T11:28:34;28.55;;;15.55;;
78893;SDS011;68282;42.698;23.350;2024-01-11T11:31:02;24.70;;;14.32;;
78893;SDS011;68282;42.698;23.350;2024-01-11T11:33:28;24.15;;;14.48;;
78893;SDS011;68282;42.698;23.350;2024-01-11T11:35:55;22.27;;;14.30;;
78893;SDS011;68282;42.698;23.350;2024-01-11T11:38:28;21.20;;;14.07;;
78893;SDS011;68282;42.698;23.350;2024-01-11T11:40:56;25.85;;;14.07;;
78893;SDS011;68282;42.698;23.350;2024-01-11T11:43:23;22.77;;;14.48;;
78893;SDS011;68282;42.698;23.350;2024-01-11T11:45:50;24.88;;;14.25;;
78893;SDS011;68282;42.698;23.350;2024-01-11T11:51:17;15.23;;;10.30;;
78893;SDS011;68282;42.698;23.350;2024-01-11T11:53:45;23.85;;;9.07;;
78893;SDS011;68282;42.698;23.350;2024-01-11T11:56:12;19.83;;;8.95;;
78893;SDS011;68282;42.698;23.350;2024-01-11T11:58:40;18.45;;;13.07;;
78893;SDS011;68282;42.698;23.350;2024-01-11T12:01:06;16.52;;;9.45;;
78893;SDS011;68282;42.698;23.350;2024-01-11T12:03:35;19.60;;;10.20;;
78893;SDS011;68282;42.698;23.350;2024-01-11T12:06:02;15.07;;;8.57;;
78893;SDS011;68282;42.698;23.350;2024-01-11T12:08:33;11.23;;;6.90;;
78893;SDS011;68282;42.698;23.350;2024-01-11T12:11:00;11.00;;;6.78;;
78893;SDS011;68282;42.698;23.350;2024-01-11T12:13:26;12.93;;;7.70;;
78893;SDS011;68282;42.698;23.350;2024-01-11T12:15:51;12.75;;;7.10;;
78893;SDS011;68282;42.698;23.350;2024-01-11T12:18:17;14.68;;;7.82;;
78893;SDS011;68282;42.698;23.350;2024-01-11T12:20:43;12.68;;;6.97;;
78893;SDS011;68282;42.698;23.350;2024-01-11T12:23:09;9.50;;;6.18;;
78893;SDS011;68282;42.698;23.350;2024-01-11T12:25:35;10.80;;;6.35;;
78893;SDS011;68282;42.698;23.350;2024-01-11T12:28:02;10.18;;;5.80;;
78893;SDS011;68282;42.698;23.350;2024-01-11T12:33:26;14.90;;;7.80;;
78893;SDS011;68282;42.698;23.350;2024-01-11T12:35:54;11.35;;;6.50;;
78893;SDS011;68282;42.698;23.350;2024-01-11T12:38:20;11.52;;;6.35;;
78893;SDS011;68282;42.698;23.350;2024-01-11T12:40:45;5.75;;;4.63;;
78893;SDS011;68282;42.698;23.350;2024-01-11T12:43:12;6.70;;;3.90;;
78893;SDS011;68282;42.698;23.350;2024-01-11T12:45:37;9.77;;;5.15;;
78893;SDS011;68282;42.698;23.350;2024-01-11T12:48:08;9.60;;;4.57;;
78893;SDS011;68282;42.698;23.350;2024-01-11T12:53:10;3.70;;;2.95;;
78893;SDS011;68282;42.698;23.350;2024-01-11T12:55:46;9.30;;;4.20;;
78893;SDS011;68282;42.698;23.350;2024-01-11T12:58:13;6.28;;;3.47;;
78893;SDS011;68282;42.698;23.350;2024-01-11T13:00:50;3.80;;;2.55;;
78893;SDS011;68282;42.698;23.350;2024-01-11T13:03:17;5.53;;;3.22;;
78893;SDS011;68282;42.698;23.350;2024-01-11T13:05:44;3.92;;;2.92;;
78893;SDS011;68282;42.698;23.350;2024-01-11T13:08:10;5.00;;;2.53;;
78893;SDS011;68282;42.698;23.350;2024-01-11T13:10:37;6.82;;;4.18;;
78893;SDS011;68282;42.698;23.350;2024-01-11T13:13:05;6.30;;;4.60;;
78893;SDS011;68282;42.698;23.350;2024-01-11T13:15:31;7.18;;;3.97;;
78893;SDS011;68282;42.698;23.350;2024-01-11T13:17:57;6.68;;;3.58;;
78893;SDS011;68282;42.698;23.350;2024-01-11T13:20:23;5.72;;;3.00;;
78893;SDS011;68282;42.698;23.350;2024-01-11T13:25:38;5.70;;;2.70;;
78893;SDS011;68282;42.698;23.350;2024-01-11T13:28:05;11.40;;;4.15;;
78893;SDS011;68282;42.698;23.350;2024-01-11T13:30:32;5.63;;;3.35;;
78893;SDS011;68282;42.698;23.350;2024-01-11T13:32:58;10.90;;;6.38;;
78893;SDS011;68282;42.698;23.350;2024-01-11T13:35:24;7.50;;;4.43;;
78893;SDS011;68282;42.698;23.350;2024-01-11T13:37:53;4.80;;;3.03;;
78893;SDS011;68282;42.698;23.350;2024-01-11T13:40:19;4.60;;;2.72;;
78893;SDS011;68282;42.698;23.350;2024-01-11T13:42:44;3.28;;;2.47;;
78893;SDS011;68282;42.698;23.350;2024-01-11T13:45:10;5.18;;;3.28;;
78893;SDS011;68282;42.698;23.350;2024-01-11T13:47:37;4.55;;;2.75;;
78893;SDS011;68282;42.698;23.350;2024-01-11T13:50:03;4.75;;;2.78;;
78893;SDS011;68282;42.698;23.350;2024-01-11T13:52:30;6.47;;;3.25;;
78893;SDS011;68282;42.698;23.350;2024-01-11T13:54:57;4.07;;;3.08;;
78893;SDS011;68282;42.698;23.350;2024-01-11T13:57:23;4.03;;;2.63;;
78893;SDS011;68282;42.698;23.350;2024-01-11T13:59:49;4.93;;;3.35;;
78893;SDS011;68282;42.698;23.350;2024-01-11T14:02:15;5.35;;;3.17;;
78893;SDS011;68282;42.698;23.350;2024-01-11T14:04:41;8.40;;;4.53;;
78893;SDS011;68282;42.698;23.350;2024-01-11T14:25:49;10.30;;;5.20;;
78893;SDS011;68282;42.698;23.350;2024-01-11T14:28:15;9.00;;;3.72;;
78893;SDS011;68282;42.698;23.350;2024-01-11T14:30:42;7.72;;;4.15;;
78893;SDS011;68282;42.698;23.350;2024-01-11T14:33:07;11.48;;;5.10;;
78893;SDS011;68282;42.698;23.350;2024-01-11T14:35:33;9.77;;;5.65;;
78893;SDS011;68282;42.698;23.350;2024-01-11T14:37:58;9.32;;;5.07;;
78893;SDS011;68282;42.698;23.350;2024-01-11T14:40:24;10.50;;;5.30;;
78893;SDS011;68282;42.698;23.350;2024-01-11T14:42:49;8.65;;;5.03;;
78893;SDS011;68282;42.698;23.350;2024-01-11T14:45:15;6.60;;;3.97;;
78893;SDS011;68282;42.698;23.350;2024-01-11T14:47:42;8.43;;;4.22;;
78893;SDS011;68282;42.698;23.350;2024-01-11T14:50:07;6.60;;;4.10;;
78893;SDS011;68282;42.698;23.350;2024-01-11T14:52:36;5.43;;;3.83;;
78893;SDS011;68282;42.698;23.350;2024-01-11T14:55:03;6.10;;;4.22;;
78893;SDS011;68282;42.698;23.350;2024-01-11T14:57:30;8.85;;;5.15;;
78893;SDS011;68282;42.698;23.350;2024-01-11T14:59:56;7.32;;;5.25;;
78893;SDS011;68282;42.698;23.350;2024-01-11T15:02:21;5.97;;;3.47;;
78893;SDS011;68282;42.698;23.350;2024-01-11T15:04:47;6.07;;;3.83;;
78893;SDS011;68282;42.698;23.350;2024-01-11T15:07:13;7.22;;;3.88;;
78893;SDS011;68282;42.698;23.350;2024-01-11T15:09:40;17.45;;;10.85;;
78893;SDS011;68282;42.698;23.350;2024-01-11T15:12:05;9.80;;;5.10;;
78893;SDS011;68282;42.698;23.350;2024-01-11T15:14:31;7.10;;;5.38;;
78893;SDS011;68282;42.698;23.350;2024-01-11T15:16:56;10.80;;;4.63;;
78893;SDS011;68282;42.698;23.350;2024-01-11T15:19:23;8.35;;;5.25;;
78893;SDS011;68282;42.698;23.350;2024-01-11T15:21:49;11.90;;;5.97;;
78893;SDS011;68282;42.698;23.350;2024-01-11T15:24:14;12.48;;;4.78;;
78893;SDS011;68282;42.698;23.350;2024-01-11T15:26:40;15.88;;;7.82;;